Tijuana, Mexico

2:55 PM PDT on September 16, 2014 (GMT -0700)
Gen Abelardo L Rodriguez International | Change Station
CLOSE
Current Station
Airport
Location: Tijuana,
Elevation: 499 ft
Nearby Weather Stations

Elev 499 ft 32.54 °N, 116.97 °W | Updated 1 hour ago

Partly Cloudy
Partly Cloudy
102 °F
Feels Like 101 °F
N
9
Wind Variable Wind from East

Today
High -- | Low -- °F
--% Chance of Precip.
Yesterday
High -- | Low -- °F
Precip. -- in
6:32 AM 6:52 PM
Last Quarter, 42% visible
Pressure 29.73 in
Visibility 7.0 miles
Clouds Few 3000 ft
Heat Index 101 °F
Dew Point 57 °F
Humidity 22%
Rainfall 0.00 in
Snow Depth Not available.
UV 8 out of 12
Pollen Not available.
Air Quality Not available.
Flu Activity Not available.
METAR MMTJ 162053Z 09008KT 7SM FEW030 39/14 A2974 RMK SLP067 57017 967 8/500 HZY

More Conditions Fewer Conditions

Pressure 29.73 in
Visibility 7.0 miles
Clouds Few 3000 ft
Heat Index 101 °F
Dew Point 57 °F
Humidity 22%
Rainfall 0.00 in
Snow Depth Not available.
UV 8 out of 12
Pollen Not available.
Air Quality Not available.
Flu Activity Not available.
METAR MMTJ 162053Z 09008KT 7SM FEW030 39/14 A2974 RMK SLP067 57017 967 8/500 HZY

More Conditions Fewer Conditions

10-Day Weather Forecast

Almanac

Astronomy

Sep. 16, 2014 Rise Set
Actual Time 6:32 AM PDT 6:52 PM PDT
Civil Twilight 6:07 AM PDT 7:17 PM PDT
Nautical Twilight 5:38 AM PDT 7:45 PM PDT
Astronomical Twilight 5:09 AM PDT 8:15 PM PDT
Moon No Moon Rise 2:05 PM PDT
Length of Visible Light 13h 09m
Length of Day
12h 20m
Tomorrow will be 1m 59s shorter.
Last Quarter, 42% of the Moon is Illuminated
Today
Last Quarter
Sep 24
New
Oct 1
First Quarter
Oct 8
Full
Oct 15
Last Quarter

Today's Extremes

Country Highs Country Lows

Community

WunderPhotos

Upload Photos

1,753,895 photos uploaded!

Nearby

Snow Depth

Not available.

Earthquake Activity

City Distance Mag. Time & Date
La Quinta, California 73 miles 2.7 8:59 PM PDT
2014-09-15
San Jacinto, California 86 miles 3.0 3:16 PM PDT
2014-09-14
Minimum magnitude displayed is 2.5.

Coastal Water Temperatures

Place Temperature
No Stations Reporting

Nearby Weather Stations